sensor_id;sensor_type;location;lat;lon;timestamp;P1;durP1;ratioP1;P2;durP2;ratioP2
32906;SDS011;19259;51.590;5.320;2022-12-07T00:01:33;29.52;;;14.58;;
32906;SDS011;19259;51.590;5.320;2022-12-07T00:04:04;31.40;;;14.95;;
32906;SDS011;19259;51.590;5.320;2022-12-07T00:06:36;27.58;;;14.83;;
32906;SDS011;19259;51.590;5.320;2022-12-07T00:11:40;30.72;;;14.87;;
32906;SDS011;19259;51.590;5.320;2022-12-07T00:14:13;31.97;;;15.25;;
32906;SDS011;19259;51.590;5.320;2022-12-07T00:16:42;35.35;;;16.05;;
32906;SDS011;19259;51.590;5.320;2022-12-07T00:19:16;34.60;;;16.07;;
32906;SDS011;19259;51.590;5.320;2022-12-07T00:21:45;29.90;;;13.98;;
32906;SDS011;19259;51.590;5.320;2022-12-07T00:24:12;26.40;;;14.53;;
32906;SDS011;19259;51.590;5.320;2022-12-07T00:26:40;28.17;;;14.63;;
32906;SDS011;19259;51.590;5.320;2022-12-07T00:29:13;27.93;;;13.45;;
32906;SDS011;19259;51.590;5.320;2022-12-07T00:31:40;24.15;;;12.80;;
32906;SDS011;19259;51.590;5.320;2022-12-07T00:34:12;29.48;;;14.45;;
32906;SDS011;19259;51.590;5.320;2022-12-07T00:36:38;23.98;;;12.95;;
32906;SDS011;19259;51.590;5.320;2022-12-07T00:39:06;28.70;;;14.28;;
32906;SDS011;19259;51.590;5.320;2022-12-07T00:41:36;23.32;;;12.85;;
32906;SDS011;19259;51.590;5.320;2022-12-07T00:44:03;27.20;;;13.13;;
32906;SDS011;19259;51.590;5.320;2022-12-07T00:46:33;27.45;;;13.53;;
32906;SDS011;19259;51.590;5.320;2022-12-07T00:49:01;23.02;;;11.60;;
32906;SDS011;19259;51.590;5.320;2022-12-07T00:51:32;33.50;;;12.37;;
32906;SDS011;19259;51.590;5.320;2022-12-07T00:53:59;25.62;;;12.25;;
32906;SDS011;19259;51.590;5.320;2022-12-07T00:56:27;22.85;;;12.65;;
32906;SDS011;19259;51.590;5.320;2022-12-07T00:58:56;24.75;;;11.73;;
32906;SDS011;19259;51.590;5.320;2022-12-07T01:01:27;24.80;;;11.95;;
32906;SDS011;19259;51.590;5.320;2022-12-07T01:03:56;22.35;;;11.25;;
32906;SDS011;19259;51.590;5.320;2022-12-07T01:06:24;23.87;;;11.83;;
32906;SDS011;19259;51.590;5.320;2022-12-07T01:08:52;20.43;;;10.82;;
32906;SDS011;19259;51.590;5.320;2022-12-07T01:11:21;19.25;;;10.90;;
32906;SDS011;19259;51.590;5.320;2022-12-07T01:13:52;22.52;;;10.38;;
32906;SDS011;19259;51.590;5.320;2022-12-07T01:16:21;22.20;;;11.57;;
32906;SDS011;19259;51.590;5.320;2022-12-07T01:18:51;24.32;;;11.45;;
32906;SDS011;19259;51.590;5.320;2022-12-07T01:21:21;25.92;;;11.78;;
32906;SDS011;19259;51.590;5.320;2022-12-07T01:23:50;19.57;;;11.22;;
32906;SDS011;19259;51.590;5.320;2022-12-07T01:26:19;28.15;;;11.88;;
32906;SDS011;19259;51.590;5.320;2022-12-07T01:28:48;28.00;;;12.70;;
32906;SDS011;19259;51.590;5.320;2022-12-07T01:31:17;32.65;;;13.80;;
32906;SDS011;19259;51.590;5.320;2022-12-07T01:33:48;24.35;;;12.43;;
32906;SDS011;19259;51.590;5.320;2022-12-07T01:36:24;32.20;;;11.63;;
32906;SDS011;19259;51.590;5.320;2022-12-07T01:38:55;20.95;;;12.05;;
32906;SDS011;19259;51.590;5.320;2022-12-07T01:41:25;26.15;;;11.78;;
32906;SDS011;19259;51.590;5.320;2022-12-07T01:46:45;23.20;;;12.10;;
32906;SDS011;19259;51.590;5.320;2022-12-07T01:54:26;23.47;;;11.08;;
32906;SDS011;19259;51.590;5.320;2022-12-07T01:56:54;27.70;;;11.97;;
32906;SDS011;19259;51.590;5.320;2022-12-07T01:59:24;31.93;;;12.82;;
32906;SDS011;19259;51.590;5.320;2022-12-07T02:01:53;24.10;;;12.15;;
32906;SDS011;19259;51.590;5.320;2022-12-07T02:04:22;27.13;;;12.43;;
32906;SDS011;19259;51.590;5.320;2022-12-07T02:06:51;24.02;;;12.25;;
32906;SDS011;19259;51.590;5.320;2022-12-07T02:09:19;30.12;;;12.80;;
32906;SDS011;19259;51.590;5.320;2022-12-07T02:11:47;26.42;;;13.00;;
32906;SDS011;19259;51.590;5.320;2022-12-07T02:14:15;29.98;;;13.03;;
32906;SDS011;19259;51.590;5.320;2022-12-07T02:22:31;21.35;;;12.13;;
32906;SDS011;19259;51.590;5.320;2022-12-07T02:25:15;29.55;;;12.23;;
32906;SDS011;19259;51.590;5.320;2022-12-07T02:30:50;24.82;;;11.35;;
32906;SDS011;19259;51.590;5.320;2022-12-07T02:33:25;29.95;;;12.88;;
32906;SDS011;19259;51.590;5.320;2022-12-07T02:38:45;30.92;;;13.58;;
32906;SDS011;19259;51.590;5.320;2022-12-07T02:44:06;25.05;;;12.88;;
32906;SDS011;19259;51.590;5.320;2022-12-07T02:46:40;24.25;;;12.20;;
32906;SDS011;19259;51.590;5.320;2022-12-07T02:49:08;24.90;;;12.73;;
32906;SDS011;19259;51.590;5.320;2022-12-07T02:51:41;25.57;;;12.73;;
32906;SDS011;19259;51.590;5.320;2022-12-07T02:56:42;23.20;;;11.38;;
32906;SDS011;19259;51.590;5.320;2022-12-07T02:59:17;24.27;;;12.23;;
32906;SDS011;19259;51.590;5.320;2022-12-07T03:02:16;19.20;;;11.30;;
32906;SDS011;19259;51.590;5.320;2022-12-07T03:05:05;25.12;;;10.65;;
32906;SDS011;19259;51.590;5.320;2022-12-07T03:07:33;23.80;;;11.83;;
32906;SDS011;19259;51.590;5.320;2022-12-07T03:10:07;24.35;;;11.55;;
32906;SDS011;19259;51.590;5.320;2022-12-07T03:12:37;23.50;;;11.88;;
32906;SDS011;19259;51.590;5.320;2022-12-07T03:15:07;21.27;;;10.82;;
32906;SDS011;19259;51.590;5.320;2022-12-07T03:17:42;22.45;;;11.18;;
32906;SDS011;19259;51.590;5.320;2022-12-07T03:20:13;22.95;;;10.82;;
32906;SDS011;19259;51.590;5.320;2022-12-07T03:22:43;22.55;;;10.93;;
32906;SDS011;19259;51.590;5.320;2022-12-07T03:25:13;23.47;;;10.90;;
32906;SDS011;19259;51.590;5.320;2022-12-07T03:27:49;21.45;;;10.35;;
32906;SDS011;19259;51.590;5.320;2022-12-07T03:30:39;20.60;;;10.88;;
32906;SDS011;19259;51.590;5.320;2022-12-07T03:33:15;25.00;;;10.82;;
32906;SDS011;19259;51.590;5.320;2022-12-07T03:38:29;28.25;;;11.93;;
32906;SDS011;19259;51.590;5.320;2022-12-07T03:41:08;22.10;;;10.38;;
32906;SDS011;19259;51.590;5.320;2022-12-07T03:49:04;18.75;;;9.25;;
32906;SDS011;19259;51.590;5.320;2022-12-07T03:51:42;20.40;;;9.98;;
32906;SDS011;19259;51.590;5.320;2022-12-07T03:54:24;28.25;;;11.43;;
32906;SDS011;19259;51.590;5.320;2022-12-07T03:57:08;24.47;;;9.45;;
32906;SDS011;19259;51.590;5.320;2022-12-07T03:59:38;23.05;;;9.23;;
32906;SDS011;19259;51.590;5.320;2022-12-07T04:02:07;16.23;;;8.38;;
32906;SDS011;19259;51.590;5.320;2022-12-07T04:04:38;16.97;;;8.80;;
32906;SDS011;19259;51.590;5.320;2022-12-07T04:07:06;18.65;;;8.55;;
32906;SDS011;19259;51.590;5.320;2022-12-07T04:09:34;19.30;;;8.83;;
32906;SDS011;19259;51.590;5.320;2022-12-07T04:12:02;22.45;;;9.03;;
32906;SDS011;19259;51.590;5.320;2022-12-07T04:14:29;16.42;;;8.10;;
32906;SDS011;19259;51.590;5.320;2022-12-07T04:16:57;14.78;;;7.92;;
32906;SDS011;19259;51.590;5.320;2022-12-07T04:19:26;18.25;;;8.38;;
32906;SDS011;19259;51.590;5.320;2022-12-07T04:21:56;20.15;;;9.18;;
32906;SDS011;19259;51.590;5.320;2022-12-07T04:24:24;13.43;;;7.05;;
32906;SDS011;19259;51.590;5.320;2022-12-07T04:26:53;17.70;;;8.03;;
32906;SDS011;19259;51.590;5.320;2022-12-07T04:29:21;14.13;;;6.65;;
32906;SDS011;19259;51.590;5.320;2022-12-07T04:31:49;19.23;;;8.38;;
32906;SDS011;19259;51.590;5.320;2022-12-07T04:34:18;19.05;;;6.95;;
32906;SDS011;19259;51.590;5.320;2022-12-07T04:36:46;18.45;;;6.40;;
32906;SDS011;19259;51.590;5.320;2022-12-07T04:39:18;14.53;;;5.67;;
32906;SDS011;19259;51.590;5.320;2022-12-07T04:41:48;23.45;;;6.65;;
32906;SDS011;19259;51.590;5.320;2022-12-07T04:44:16;13.72;;;6.70;;
32906;SDS011;19259;51.590;5.320;2022-12-07T04:46:44;19.85;;;7.20;;
32906;SDS011;19259;51.590;5.320;2022-12-07T04:49:13;19.25;;;8.08;;
32906;SDS011;19259;51.590;5.320;2022-12-07T04:51:41;18.45;;;8.60;;
32906;SDS011;19259;51.590;5.320;2022-12-07T04:54:09;21.17;;;8.23;;
32906;SDS011;19259;51.590;5.320;2022-12-07T04:56:39;20.65;;;8.45;;
32906;SDS011;19259;51.590;5.320;2022-12-07T04:59:09;23.20;;;8.63;;
32906;SDS011;19259;51.590;5.320;2022-12-07T05:01:40;25.45;;;8.23;;
32906;SDS011;19259;51.590;5.320;2022-12-07T05:04:08;22.10;;;8.85;;
32906;SDS011;19259;51.590;5.320;2022-12-07T05:06:36;22.58;;;10.13;;
32906;SDS011;19259;51.590;5.320;2022-12-07T05:09:04;20.27;;;9.28;;
32906;SDS011;19259;51.590;5.320;2022-12-07T05:11:32;24.72;;;11.70;;
32906;SDS011;19259;51.590;5.320;2022-12-07T05:16:37;20.95;;;8.93;;
32906;SDS011;19259;51.590;5.320;2022-12-07T05:19:05;18.67;;;9.28;;
32906;SDS011;19259;51.590;5.320;2022-12-07T05:21:36;29.30;;;12.95;;
32906;SDS011;19259;51.590;5.320;2022-12-07T05:24:06;22.75;;;10.45;;
32906;SDS011;19259;51.590;5.320;2022-12-07T05:26:35;21.33;;;10.40;;
32906;SDS011;19259;51.590;5.320;2022-12-07T05:29:03;27.85;;;10.88;;
32906;SDS011;19259;51.590;5.320;2022-12-07T05:31:31;29.87;;;10.88;;
32906;SDS011;19259;51.590;5.320;2022-12-07T05:33:59;28.90;;;10.48;;
32906;SDS011;19259;51.590;5.320;2022-12-07T05:36:27;17.80;;;8.60;;
32906;SDS011;19259;51.590;5.320;2022-12-07T05:38:56;23.02;;;10.53;;
32906;SDS011;19259;51.590;5.320;2022-12-07T05:41:25;30.72;;;10.72;;
32906;SDS011;19259;51.590;5.320;2022-12-07T05:44:10;28.90;;;10.82;;
32906;SDS011;19259;51.590;5.320;2022-12-07T05:46:38;17.52;;;9.78;;
32906;SDS011;19259;51.590;5.320;2022-12-07T05:49:05;20.72;;;10.48;;
32906;SDS011;19259;51.590;5.320;2022-12-07T05:51:33;18.60;;;9.65;;
32906;SDS011;19259;51.590;5.320;2022-12-07T05:54:01;22.20;;;10.35;;
32906;SDS011;19259;51.590;5.320;2022-12-07T05:56:32;30.30;;;10.90;;
32906;SDS011;19259;51.590;5.320;2022-12-07T05:59:00;23.38;;;11.22;;
32906;SDS011;19259;51.590;5.320;2022-12-07T06:01:45;19.02;;;9.85;;
32906;SDS011;19259;51.590;5.320;2022-12-07T06:04:12;20.97;;;10.18;;
32906;SDS011;19259;51.590;5.320;2022-12-07T06:06:40;21.68;;;10.68;;
32906;SDS011;19259;51.590;5.320;2022-12-07T06:09:09;20.45;;;10.00;;
32906;SDS011;19259;51.590;5.320;2022-12-07T06:11:36;18.70;;;9.98;;
32906;SDS011;19259;51.590;5.320;2022-12-07T06:14:22;25.92;;;9.40;;
32906;SDS011;19259;51.590;5.320;2022-12-07T06:16:49;19.48;;;9.93;;
32906;SDS011;19259;51.590;5.320;2022-12-07T06:19:17;23.20;;;10.30;;
32906;SDS011;19259;51.590;5.320;2022-12-07T06:21:45;25.35;;;11.78;;
32906;SDS011;19259;51.590;5.320;2022-12-07T06:24:13;22.80;;;10.80;;
32906;SDS011;19259;51.590;5.320;2022-12-07T06:26:41;26.60;;;11.45;;
32906;SDS011;19259;51.590;5.320;2022-12-07T06:29:09;24.15;;;11.38;;
32906;SDS011;19259;51.590;5.320;2022-12-07T06:31:37;25.60;;;10.90;;
32906;SDS011;19259;51.590;5.320;2022-12-07T06:34:06;24.98;;;11.65;;
32906;SDS011;19259;51.590;5.320;2022-12-07T06:36:38;28.00;;;11.95;;
32906;SDS011;19259;51.590;5.320;2022-12-07T06:39:06;24.43;;;11.38;;
32906;SDS011;19259;51.590;5.320;2022-12-07T06:41:35;21.90;;;10.93;;
32906;SDS011;19259;51.590;5.320;2022-12-07T06:44:09;24.87;;;11.12;;
32906;SDS011;19259;51.590;5.320;2022-12-07T06:46:33;25.20;;;11.33;;
32906;SDS011;19259;51.590;5.320;2022-12-07T06:49:02;26.50;;;11.22;;
32906;SDS011;19259;51.590;5.320;2022-12-07T06:51:31;25.55;;;10.93;;
32906;SDS011;19259;51.590;5.320;2022-12-07T06:54:02;24.02;;;11.05;;
32906;SDS011;19259;51.590;5.320;2022-12-07T06:56:30;21.25;;;10.13;;
32906;SDS011;19259;51.590;5.320;2022-12-07T06:58:58;24.63;;;10.82;;
32906;SDS011;19259;51.590;5.320;2022-12-07T07:01:25;29.15;;;11.20;;
32906;SDS011;19259;51.590;5.320;2022-12-07T07:03:54;27.00;;;11.78;;
32906;SDS011;19259;51.590;5.320;2022-12-07T07:06:22;26.40;;;12.07;;
32906;SDS011;19259;51.590;5.320;2022-12-07T07:08:50;25.45;;;11.15;;
32906;SDS011;19259;51.590;5.320;2022-12-07T07:11:17;24.05;;;11.30;;
32906;SDS011;19259;51.590;5.320;2022-12-07T07:13:45;30.65;;;11.28;;
32906;SDS011;19259;51.590;5.320;2022-12-07T07:16:13;29.45;;;11.08;;
32906;SDS011;19259;51.590;5.320;2022-12-07T07:18:41;22.60;;;11.08;;
32906;SDS011;19259;51.590;5.320;2022-12-07T07:21:09;21.73;;;11.70;;
32906;SDS011;19259;51.590;5.320;2022-12-07T07:23:37;24.75;;;11.57;;
32906;SDS011;19259;51.590;5.320;2022-12-07T07:26:04;28.45;;;11.40;;
32906;SDS011;19259;51.590;5.320;2022-12-07T07:28:32;34.13;;;11.05;;
32906;SDS011;19259;51.590;5.320;2022-12-07T07:30:59;28.77;;;12.40;;
32906;SDS011;19259;51.590;5.320;2022-12-07T07:33:27;32.73;;;15.40;;
32906;SDS011;19259;51.590;5.320;2022-12-07T07:35:54;30.12;;;13.53;;
32906;SDS011;19259;51.590;5.320;2022-12-07T07:38:22;26.40;;;11.93;;
32906;SDS011;19259;51.590;5.320;2022-12-07T07:40:50;22.37;;;11.85;;
32906;SDS011;19259;51.590;5.320;2022-12-07T07:43:17;30.12;;;13.35;;
32906;SDS011;19259;51.590;5.320;2022-12-07T07:45:45;23.62;;;13.22;;
32906;SDS011;19259;51.590;5.320;2022-12-07T07:48:12;29.87;;;13.40;;
32906;SDS011;19259;51.590;5.320;2022-12-07T07:50:40;22.82;;;11.15;;
32906;SDS011;19259;51.590;5.320;2022-12-07T07:53:08;26.15;;;12.60;;
32906;SDS011;19259;51.590;5.320;2022-12-07T07:55:37;22.65;;;11.68;;
32906;SDS011;19259;51.590;5.320;2022-12-07T07:58:04;27.50;;;11.78;;
32906;SDS011;19259;51.590;5.320;2022-12-07T08:00:32;24.32;;;10.70;;
32906;SDS011;19259;51.590;5.320;2022-12-07T08:02:59;28.10;;;10.95;;
32906;SDS011;19259;51.590;5.320;2022-12-07T08:05:27;22.20;;;10.93;;
32906;SDS011;19259;51.590;5.320;2022-12-07T08:07:54;30.40;;;11.18;;
32906;SDS011;19259;51.590;5.320;2022-12-07T08:10:23;20.75;;;10.60;;
32906;SDS011;19259;51.590;5.320;2022-12-07T08:12:51;24.25;;;10.68;;
32906;SDS011;19259;51.590;5.320;2022-12-07T08:15:38;21.52;;;9.90;;
32906;SDS011;19259;51.590;5.320;2022-12-07T08:18:07;29.85;;;11.15;;
32906;SDS011;19259;51.590;5.320;2022-12-07T08:20:36;29.85;;;12.33;;
32906;SDS011;19259;51.590;5.320;2022-12-07T08:23:04;26.45;;;11.00;;
32906;SDS011;19259;51.590;5.320;2022-12-07T08:25:33;24.47;;;10.95;;
32906;SDS011;19259;51.590;5.320;2022-12-07T08:28:00;28.00;;;10.70;;
32906;SDS011;19259;51.590;5.320;2022-12-07T08:30:29;30.52;;;12.00;;
32906;SDS011;19259;51.590;5.320;2022-12-07T08:32:57;27.85;;;11.22;;
32906;SDS011;19259;51.590;5.320;2022-12-07T08:35:25;20.50;;;10.08;;
32906;SDS011;19259;51.590;5.320;2022-12-07T08:37:53;24.12;;;9.75;;
32906;SDS011;19259;51.590;5.320;2022-12-07T08:40:20;23.70;;;10.53;;
32906;SDS011;19259;51.590;5.320;2022-12-07T08:42:48;23.40;;;10.45;;
32906;SDS011;19259;51.590;5.320;2022-12-07T08:45:17;26.17;;;11.43;;
32906;SDS011;19259;51.590;5.320;2022-12-07T08:47:56;25.55;;;11.73;;
32906;SDS011;19259;51.590;5.320;2022-12-07T08:50:18;23.85;;;11.65;;
32906;SDS011;19259;51.590;5.320;2022-12-07T08:52:48;25.68;;;11.35;;
32906;SDS011;19259;51.590;5.320;2022-12-07T08:55:18;22.73;;;10.85;;
32906;SDS011;19259;51.590;5.320;2022-12-07T08:57:46;26.05;;;10.88;;
32906;SDS011;19259;51.590;5.320;2022-12-07T09:00:14;17.50;;;9.30;;
32906;SDS011;19259;51.590;5.320;2022-12-07T09:02:44;25.00;;;10.10;;
32906;SDS011;19259;51.590;5.320;2022-12-07T09:05:12;19.32;;;9.90;;
32906;SDS011;19259;51.590;5.320;2022-12-07T09:07:43;16.80;;;8.75;;
32906;SDS011;19259;51.590;5.320;2022-12-07T09:10:13;22.58;;;9.05;;
32906;SDS011;19259;51.590;5.320;2022-12-07T09:12:41;17.10;;;8.43;;
32906;SDS011;19259;51.590;5.320;2022-12-07T09:15:09;18.87;;;8.40;;
32906;SDS011;19259;51.590;5.320;2022-12-07T09:17:36;18.75;;;7.80;;
32906;SDS011;19259;51.590;5.320;2022-12-07T09:20:04;17.32;;;8.55;;
32906;SDS011;19259;51.590;5.320;2022-12-07T09:22:33;15.75;;;8.00;;
32906;SDS011;19259;51.590;5.320;2022-12-07T09:25:00;14.18;;;7.08;;
32906;SDS011;19259;51.590;5.320;2022-12-07T09:27:29;14.28;;;6.80;;
32906;SDS011;19259;51.590;5.320;2022-12-07T09:29:57;16.97;;;7.08;;
32906;SDS011;19259;51.590;5.320;2022-12-07T09:32:25;16.27;;;8.18;;
32906;SDS011;19259;51.590;5.320;2022-12-07T09:34:52;13.25;;;7.40;;
32906;SDS011;19259;51.590;5.320;2022-12-07T09:37:20;19.80;;;8.08;;
32906;SDS011;19259;51.590;5.320;2022-12-07T09:39:48;21.87;;;7.90;;
32906;SDS011;19259;51.590;5.320;2022-12-07T09:42:36;18.90;;;7.85;;
32906;SDS011;19259;51.590;5.320;2022-12-07T09:44:58;18.52;;;8.23;;
32906;SDS011;19259;51.590;5.320;2022-12-07T09:47:26;23.10;;;10.50;;
32906;SDS011;19259;51.590;5.320;2022-12-07T09:49:55;17.62;;;8.03;;
32906;SDS011;19259;51.590;5.320;2022-12-07T09:52:26;19.73;;;8.25;;
32906;SDS011;19259;51.590;5.320;2022-12-07T09:54:55;19.95;;;8.58;;
32906;SDS011;19259;51.590;5.320;2022-12-07T09:57:30;19.10;;;7.55;;
32906;SDS011;19259;51.590;5.320;2022-12-07T10:00:04;16.95;;;6.80;;
32906;SDS011;19259;51.590;5.320;2022-12-07T10:03:01;15.10;;;6.60;;
32906;SDS011;19259;51.590;5.320;2022-12-07T10:05:30;19.65;;;7.05;;
32906;SDS011;19259;51.590;5.320;2022-12-07T10:10:30;15.60;;;6.92;;
32906;SDS011;19259;51.590;5.320;2022-12-07T10:13:12;16.40;;;5.87;;
32906;SDS011;19259;51.590;5.320;2022-12-07T10:15:49;20.60;;;7.37;;
32906;SDS011;19259;51.590;5.320;2022-12-07T10:18:25;17.35;;;6.85;;
32906;SDS011;19259;51.590;5.320;2022-12-07T10:21:14;18.40;;;6.28;;
32906;SDS011;19259;51.590;5.320;2022-12-07T10:24:01;15.13;;;6.33;;
32906;SDS011;19259;51.590;5.320;2022-12-07T10:29:24;15.25;;;6.03;;
32906;SDS011;19259;51.590;5.320;2022-12-07T10:32:06;19.70;;;6.58;;
32906;SDS011;19259;51.590;5.320;2022-12-07T10:34:44;14.03;;;6.00;;
32906;SDS011;19259;51.590;5.320;2022-12-07T10:37:19;15.93;;;6.72;;
32906;SDS011;19259;51.590;5.320;2022-12-07T10:39:49;11.40;;;5.80;;
32906;SDS011;19259;51.590;5.320;2022-12-07T10:42:19;10.30;;;5.47;;
32906;SDS011;19259;51.590;5.320;2022-12-07T10:44:50;16.48;;;5.65;;
32906;SDS011;19259;51.590;5.320;2022-12-07T10:53:35;15.72;;;5.58;;
32906;SDS011;19259;51.590;5.320;2022-12-07T10:56:16;11.63;;;5.20;;
32906;SDS011;19259;51.590;5.320;2022-12-07T11:09:34;9.88;;;4.58;;
32906;SDS011;19259;51.590;5.320;2022-12-07T11:12:32;14.95;;;4.70;;
32906;SDS011;19259;51.590;5.320;2022-12-07T11:15:18;17.25;;;4.40;;
32906;SDS011;19259;51.590;5.320;2022-12-07T11:18:29;18.17;;;4.90;;
32906;SDS011;19259;51.590;5.320;2022-12-07T11:20:41;11.22;;;4.85;;
32906;SDS011;19259;51.590;5.320;2022-12-07T11:23:30;14.33;;;4.65;;
32906;SDS011;19259;51.590;5.320;2022-12-07T11:26:21;10.40;;;3.67;;
32906;SDS011;19259;51.590;5.320;2022-12-07T11:37:18;11.05;;;3.40;;
32906;SDS011;19259;51.590;5.320;2022-12-07T11:39:49;10.50;;;3.90;;
32906;SDS011;19259;51.590;5.320;2022-12-07T11:42:25;12.88;;;4.45;;
32906;SDS011;19259;51.590;5.320;2022-12-07T11:45:03;10.10;;;4.20;;
32906;SDS011;19259;51.590;5.320;2022-12-07T11:47:54;10.32;;;4.20;;
32906;SDS011;19259;51.590;5.320;2022-12-07T11:53:24;10.70;;;3.45;;
32906;SDS011;19259;51.590;5.320;2022-12-07T11:56:07;16.73;;;3.72;;
32906;SDS011;19259;51.590;5.320;2022-12-07T11:58:49;13.03;;;4.12;;
32906;SDS011;19259;51.590;5.320;2022-12-07T12:01:48;10.28;;;3.58;;
32906;SDS011;19259;51.590;5.320;2022-12-07T12:04:27;9.65;;;3.37;;
32906;SDS011;19259;51.590;5.320;2022-12-07T12:07:01;9.78;;;2.60;;
32906;SDS011;19259;51.590;5.320;2022-12-07T12:09:35;9.40;;;2.85;;
32906;SDS011;19259;51.590;5.320;2022-12-07T12:20:29;9.08;;;2.05;;
32906;SDS011;19259;51.590;5.320;2022-12-07T12:23:24;10.65;;;2.60;;
32906;SDS011;19259;51.590;5.320;2022-12-07T12:25:51;9.60;;;2.40;;
32906;SDS011;19259;51.590;5.320;2022-12-07T12:28:33;6.15;;;1.82;;
32906;SDS011;19259;51.590;5.320;2022-12-07T12:31:10;8.83;;;2.30;;
32906;SDS011;19259;51.590;5.320;2022-12-07T12:33:34;8.95;;;1.65;;
32906;SDS011;19259;51.590;5.320;2022-12-07T12:54:58;8.15;;;1.62;;
32906;SDS011;19259;51.590;5.320;2022-12-07T12:57:41;7.25;;;2.10;;
32906;SDS011;19259;51.590;5.320;2022-12-07T13:02:49;8.28;;;1.95;;
32906;SDS011;19259;51.590;5.320;2022-12-07T13:05:20;9.70;;;2.80;;
32906;SDS011;19259;51.590;5.320;2022-12-07T13:07:50;8.58;;;2.27;;
32906;SDS011;19259;51.590;5.320;2022-12-07T13:15:34;7.15;;;2.80;;
32906;SDS011;19259;51.590;5.320;2022-12-07T13:26:17;6.78;;;2.40;;
32906;SDS011;19259;51.590;5.320;2022-12-07T13:28:47;9.90;;;2.42;;
32906;SDS011;19259;51.590;5.320;2022-12-07T13:31:30;8.98;;;2.58;;
32906;SDS011;19259;51.590;5.320;2022-12-07T13:33:58;11.45;;;2.35;;
32906;SDS011;19259;51.590;5.320;2022-12-07T13:36:27;11.65;;;3.15;;
32906;SDS011;19259;51.590;5.320;2022-12-07T13:41:49;9.68;;;2.58;;
32906;SDS011;19259;51.590;5.320;2022-12-07T13:44:19;17.12;;;3.27;;
32906;SDS011;19259;51.590;5.320;2022-12-07T13:46:50;5.65;;;2.17;;
32906;SDS011;19259;51.590;5.320;2022-12-07T13:49:30;9.23;;;2.70;;
32906;SDS011;19259;51.590;5.320;2022-12-07T13:57:24;9.43;;;2.83;;
32906;SDS011;19259;51.590;5.320;2022-12-07T13:59:53;6.90;;;2.77;;
32906;SDS011;19259;51.590;5.320;2022-12-07T14:02:30;6.40;;;1.90;;
32906;SDS011;19259;51.590;5.320;2022-12-07T14:05:12;10.48;;;2.00;;
32906;SDS011;19259;51.590;5.320;2022-12-07T14:07:56;6.28;;;2.22;;
32906;SDS011;19259;51.590;5.320;2022-12-07T14:10:30;10.48;;;2.10;;
32906;SDS011;19259;51.590;5.320;2022-12-07T14:16:00;7.53;;;2.50;;
32906;SDS011;19259;51.590;5.320;2022-12-07T14:18:36;6.65;;;2.50;;
32906;SDS011;19259;51.590;5.320;2022-12-07T14:24:02;6.65;;;2.10;;
32906;SDS011;19259;51.590;5.320;2022-12-07T14:26:30;5.80;;;2.35;;
32906;SDS011;19259;51.590;5.320;2022-12-07T14:31:58;8.70;;;3.12;;
32906;SDS011;19259;51.590;5.320;2022-12-07T14:34:57;7.55;;;2.70;;
32906;SDS011;19259;51.590;5.320;2022-12-07T14:37:29;8.80;;;4.05;;
32906;SDS011;19259;51.590;5.320;2022-12-07T14:39:57;11.78;;;2.87;;
32906;SDS011;19259;51.590;5.320;2022-12-07T14:42:26;9.75;;;3.05;;
32906;SDS011;19259;51.590;5.320;2022-12-07T14:44:55;7.83;;;3.55;;
32906;SDS011;19259;51.590;5.320;2022-12-07T14:47:24;10.93;;;3.52;;
32906;SDS011;19259;51.590;5.320;2022-12-07T14:49:53;9.40;;;3.25;;
32906;SDS011;19259;51.590;5.320;2022-12-07T14:52:21;6.15;;;3.20;;
32906;SDS011;19259;51.590;5.320;2022-12-07T14:54:51;10.25;;;3.12;;
32906;SDS011;19259;51.590;5.320;2022-12-07T14:57:19;6.80;;;3.10;;
32906;SDS011;19259;51.590;5.320;2022-12-07T14:59:47;5.62;;;2.65;;
32906;SDS011;19259;51.590;5.320;2022-12-07T15:02:15;6.28;;;2.37;;
32906;SDS011;19259;51.590;5.320;2022-12-07T15:04:43;6.87;;;2.33;;
32906;SDS011;19259;51.590;5.320;2022-12-07T15:07:14;6.87;;;3.30;;
32906;SDS011;19259;51.590;5.320;2022-12-07T15:09:47;7.62;;;3.02;;
32906;SDS011;19259;51.590;5.320;2022-12-07T15:12:17;9.68;;;3.50;;
32906;SDS011;19259;51.590;5.320;2022-12-07T15:14:44;9.20;;;4.30;;
32906;SDS011;19259;51.590;5.320;2022-12-07T15:17:11;9.48;;;3.17;;
32906;SDS011;19259;51.590;5.320;2022-12-07T15:19:39;8.78;;;3.30;;
32906;SDS011;19259;51.590;5.320;2022-12-07T15:22:07;8.78;;;2.77;;
32906;SDS011;19259;51.590;5.320;2022-12-07T15:24:36;8.75;;;3.72;;
32906;SDS011;19259;51.590;5.320;2022-12-07T15:27:04;14.85;;;4.62;;
32906;SDS011;19259;51.590;5.320;2022-12-07T15:29:32;8.73;;;3.55;;
32906;SDS011;19259;51.590;5.320;2022-12-07T15:31:59;9.90;;;3.87;;
32906;SDS011;19259;51.590;5.320;2022-12-07T15:34:27;16.95;;;4.90;;
32906;SDS011;19259;51.590;5.320;2022-12-07T15:36:56;12.55;;;4.83;;
32906;SDS011;19259;51.590;5.320;2022-12-07T15:39:24;27.93;;;13.32;;
32906;SDS011;19259;51.590;5.320;2022-12-07T15:41:51;16.50;;;6.50;;
32906;SDS011;19259;51.590;5.320;2022-12-07T15:44:19;10.30;;;4.90;;
32906;SDS011;19259;51.590;5.320;2022-12-07T15:47:06;15.30;;;5.08;;
32906;SDS011;19259;51.590;5.320;2022-12-07T15:49:33;13.00;;;4.65;;
32906;SDS011;19259;51.590;5.320;2022-12-07T15:52:01;7.40;;;3.90;;
32906;SDS011;19259;51.590;5.320;2022-12-07T15:54:29;9.93;;;3.98;;
32906;SDS011;19259;51.590;5.320;2022-12-07T15:56:58;7.60;;;3.87;;
32906;SDS011;19259;51.590;5.320;2022-12-07T15:59:26;11.63;;;4.22;;
32906;SDS011;19259;51.590;5.320;2022-12-07T16:01:54;8.30;;;4.35;;
32906;SDS011;19259;51.590;5.320;2022-12-07T16:04:22;8.10;;;3.83;;
32906;SDS011;19259;51.590;5.320;2022-12-07T16:06:50;7.83;;;4.53;;
32906;SDS011;19259;51.590;5.320;2022-12-07T16:09:18;9.50;;;3.98;;
32906;SDS011;19259;51.590;5.320;2022-12-07T16:11:46;14.03;;;4.20;;
32906;SDS011;19259;51.590;5.320;2022-12-07T16:14:15;10.05;;;4.90;;
32906;SDS011;19259;51.590;5.320;2022-12-07T16:16:43;12.60;;;5.67;;
32906;SDS011;19259;51.590;5.320;2022-12-07T16:19:11;11.15;;;4.62;;
32906;SDS011;19259;51.590;5.320;2022-12-07T16:21:38;20.10;;;4.92;;
32906;SDS011;19259;51.590;5.320;2022-12-07T16:24:07;10.63;;;5.25;;
32906;SDS011;19259;51.590;5.320;2022-12-07T16:26:35;11.00;;;4.87;;
32906;SDS011;19259;51.590;5.320;2022-12-07T16:29:03;11.40;;;5.08;;
32906;SDS011;19259;51.590;5.320;2022-12-07T16:31:31;11.08;;;5.30;;
32906;SDS011;19259;51.590;5.320;2022-12-07T16:33:59;10.63;;;5.72;;
32906;SDS011;19259;51.590;5.320;2022-12-07T16:36:27;11.70;;;5.60;;
32906;SDS011;19259;51.590;5.320;2022-12-07T16:38:58;14.87;;;6.08;;
32906;SDS011;19259;51.590;5.320;2022-12-07T16:41:27;12.73;;;4.85;;
32906;SDS011;19259;51.590;5.320;2022-12-07T16:43:55;13.35;;;6.00;;
32906;SDS011;19259;51.590;5.320;2022-12-07T16:46:27;12.15;;;4.70;;
32906;SDS011;19259;51.590;5.320;2022-12-07T16:48:51;9.75;;;5.20;;
32906;SDS011;19259;51.590;5.320;2022-12-07T16:51:19;11.25;;;5.20;;
32906;SDS011;19259;51.590;5.320;2022-12-07T16:53:46;7.70;;;4.37;;
32906;SDS011;19259;51.590;5.320;2022-12-07T16:56:15;9.45;;;4.78;;
32906;SDS011;19259;51.590;5.320;2022-12-07T16:58:44;8.58;;;4.47;;
32906;SDS011;19259;51.590;5.320;2022-12-07T17:01:14;12.70;;;4.97;;
32906;SDS011;19259;51.590;5.320;2022-12-07T17:03:49;11.03;;;4.30;;
32906;SDS011;19259;51.590;5.320;2022-12-07T17:06:18;8.35;;;3.90;;